createdAt,value
2018-01-13T00:00:23.498Z,4.23
2018-01-13T00:02:51.034Z,4.21
2018-01-13T00:05:18.638Z,4.15
2018-01-13T00:07:46.228Z,4.21
2018-01-13T00:10:13.762Z,4.17
2018-01-13T00:12:41.338Z,4.12
2018-01-13T00:15:08.930Z,4.10
2018-01-13T00:17:36.459Z,4.09
2018-01-13T00:20:04.134Z,4.13
2018-01-13T00:22:39.611Z,4.16
2018-01-13T00:25:07.217Z,4.13
2018-01-13T00:27:34.746Z,4.13
2018-01-13T00:30:02.283Z,4.09
2018-01-13T00:32:29.862Z,4.08
2018-01-13T00:34:57.455Z,4.14
2018-01-13T00:37:24.986Z,4.13
2018-01-13T00:39:52.561Z,4.17
2018-01-13T00:42:20.097Z,4.17
2018-01-13T00:44:47.635Z,4.16
2018-01-13T00:47:15.217Z,4.16
2018-01-13T00:49:42.750Z,4.18
2018-01-13T00:52:10.282Z,4.15
2018-01-13T00:54:37.923Z,4.16
2018-01-13T00:57:05.453Z,4.20
2018-01-13T00:59:32.986Z,4.16
2018-01-13T01:02:00.574Z,4.18
2018-01-13T01:04:28.167Z,4.17
2018-01-13T01:06:55.702Z,4.12
2018-01-13T01:09:23.347Z,4.13
2018-01-13T01:11:50.893Z,4.08
2018-01-13T01:14:18.441Z,4.17
2018-01-13T01:16:46.014Z,4.14
2018-01-13T01:19:13.546Z,4.10
2018-01-13T01:21:41.074Z,4.13
2018-01-13T01:24:08.663Z,4.11
2018-01-13T01:26:36.254Z,4.11
2018-01-13T01:29:03.846Z,4.05
2018-01-13T01:31:31.421Z,4.04
2018-01-13T01:33:59.018Z,4.07
2018-01-13T01:36:26.558Z,4.10
2018-01-13T01:38:54.134Z,4.08
2018-01-13T01:41:21.665Z,4.06
2018-01-13T01:43:49.254Z,4.06
2018-01-13T01:46:16.890Z,4.03
2018-01-13T01:48:44.426Z,4.04
2018-01-13T01:51:11.954Z,4.07
2018-01-13T01:53:39.618Z,4.08
2018-01-13T01:56:07.150Z,4.06
2018-01-13T01:58:34.683Z,4.06
2018-01-13T02:01:02.322Z,4.04
2018-01-13T02:03:29.850Z,4.06
2018-01-13T02:05:57.382Z,4.01
2018-01-13T02:08:24.968Z,4.01
2018-01-13T02:10:52.634Z,4.02
2018-01-13T02:13:20.227Z,3.99
2018-01-13T02:15:47.799Z,4.03
2018-01-13T02:18:15.326Z,4.02
2018-01-13T02:20:42.861Z,4.00
2018-01-13T02:23:10.497Z,4.03
2018-01-13T02:25:38.025Z,4.04
2018-01-13T02:28:05.556Z,4.01
2018-01-13T02:30:33.138Z,3.97
2018-01-13T02:33:00.670Z,3.97
2018-01-13T02:35:28.270Z,4.01
2018-01-13T02:37:55.845Z,4.02
2018-01-13T02:40:23.386Z,4.02
2018-01-13T02:42:50.926Z,4.03
2018-01-13T02:45:18.506Z,3.96
2018-01-13T02:47:46.042Z,3.95
2018-01-13T02:50:13.582Z,3.92
2018-01-13T02:52:41.162Z,3.92
2018-01-13T02:55:08.699Z,3.88
2018-01-13T02:57:36.238Z,3.87
2018-01-13T03:00:03.938Z,3.90
2018-01-13T03:02:31.539Z,3.85
2018-01-13T03:04:59.067Z,3.85
2018-01-13T03:07:26.731Z,3.78
2018-01-13T03:09:54.257Z,3.80
2018-01-13T03:12:21.850Z,3.83
2018-01-13T03:14:49.434Z,3.84
2018-01-13T03:17:17.030Z,3.83
2018-01-13T03:19:44.622Z,3.82
2018-01-13T03:22:12.202Z,3.82
2018-01-13T03:24:39.737Z,3.76
2018-01-13T03:27:07.330Z,3.72
2018-01-13T03:29:34.910Z,3.78
2018-01-13T03:32:02.441Z,3.74
2018-01-13T03:34:30.022Z,3.76
2018-01-13T03:36:57.605Z,3.78
2018-01-13T03:39:25.133Z,3.78
2018-01-13T03:41:52.674Z,3.73
2018-01-13T03:44:20.310Z,3.76
2018-01-13T03:46:47.846Z,3.74
2018-01-13T03:49:15.446Z,3.76
2018-01-13T03:51:43.082Z,3.83
2018-01-13T03:54:10.624Z,3.83
2018-01-13T03:56:38.167Z,3.87
2018-01-13T03:59:05.746Z,3.86
2018-01-13T04:01:33.342Z,3.81
2018-01-13T04:04:00.886Z,3.84
2018-01-13T04:06:28.465Z,3.88
2018-01-13T04:08:56.034Z,3.76
2018-01-13T04:11:23.572Z,3.82
2018-01-13T04:13:51.162Z,3.85
2018-01-13T04:16:18.702Z,3.79
2018-01-13T04:18:46.298Z,3.88
2018-01-13T04:21:13.878Z,3.86
2018-01-13T04:23:41.473Z,3.84
2018-01-13T04:26:09.066Z,3.89
2018-01-13T04:28:36.742Z,3.81
2018-01-13T04:31:04.283Z,3.83
2018-01-13T04:33:31.822Z,3.85
2018-01-13T04:35:59.402Z,3.77
2018-01-13T04:38:26.942Z,3.78
2018-01-13T04:40:54.539Z,3.80
2018-01-13T04:43:22.182Z,3.71
2018-01-13T04:45:49.719Z,3.67
2018-01-13T04:48:17.261Z,3.63
2018-01-13T04:50:44.920Z,3.61
2018-01-13T04:53:12.470Z,3.58
2018-01-13T04:55:40.106Z,3.48
2018-01-13T04:58:07.761Z,3.49
2018-01-13T05:00:35.419Z,3.35
2018-01-13T05:03:02.958Z,3.27
2018-01-13T05:05:30.543Z,3.26
2018-01-13T05:07:58.078Z,3.18
2018-01-13T05:10:25.679Z,3.12
2018-01-13T05:12:53.334Z,3.14
2018-01-13T05:15:20.866Z,3.11
2018-01-13T05:17:48.402Z,3.04
2018-01-13T05:20:15.985Z,2.99
2018-01-13T05:22:43.524Z,2.94
2018-01-13T05:25:11.063Z,3.02
2018-01-13T05:27:38.699Z,2.91
2018-01-13T05:30:06.250Z,2.91
2018-01-13T05:32:33.842Z,2.80
2018-01-13T05:35:01.389Z,2.82
2018-01-13T05:37:28.986Z,2.77
2018-01-13T05:39:56.578Z,2.73
2018-01-13T05:42:24.120Z,2.68
2018-01-13T05:44:51.664Z,2.64
2018-01-13T05:47:19.226Z,2.70
2018-01-13T05:49:46.822Z,2.64
2018-01-13T05:52:14.469Z,2.65
2018-01-13T05:54:42.062Z,2.61
2018-01-13T05:57:09.597Z,2.63
2018-01-13T05:59:37.207Z,2.60
2018-01-13T06:02:04.847Z,2.58
2018-01-13T06:04:32.433Z,2.66
2018-01-13T06:06:59.970Z,2.62
2018-01-13T06:09:27.510Z,2.61
2018-01-13T06:11:55.059Z,2.59
2018-01-13T06:14:22.600Z,2.53
2018-01-13T06:16:50.191Z,2.49
2018-01-13T06:19:17.786Z,2.43
2018-01-13T06:21:45.332Z,2.44
2018-01-13T06:24:12.881Z,2.45
2018-01-13T06:26:40.418Z,2.49
2018-01-13T06:29:08.058Z,2.50
2018-01-13T06:31:35.597Z,2.45
2018-01-13T06:34:03.194Z,2.47
2018-01-13T06:36:30.742Z,2.41
2018-01-13T06:38:58.284Z,2.41
2018-01-13T06:41:25.874Z,2.47
2018-01-13T06:43:53.457Z,2.50
2018-01-13T06:46:20.998Z,2.51
2018-01-13T06:48:48.546Z,2.50
2018-01-13T06:51:16.142Z,2.47
2018-01-13T06:53:43.726Z,2.55
2018-01-13T06:56:11.322Z,2.52
2018-01-13T06:58:38.862Z,2.51
2018-01-13T07:01:06.406Z,2.55
2018-01-13T07:03:33.955Z,2.55
2018-01-13T07:06:01.538Z,2.46
2018-01-13T07:08:29.078Z,2.48
2018-01-13T07:10:56.680Z,2.51
2018-01-13T07:13:24.221Z,2.57
2018-01-13T07:15:51.815Z,2.52
2018-01-13T07:18:19.455Z,2.54
2018-01-13T07:20:47.051Z,2.64
2018-01-13T07:23:14.586Z,2.58
2018-01-13T07:25:42.191Z,2.57
2018-01-13T07:28:09.730Z,2.66
2018-01-13T07:30:37.386Z,2.65
2018-01-13T07:33:04.921Z,2.58
2018-01-13T07:35:32.519Z,2.55
2018-01-13T07:38:00.063Z,2.53
2018-01-13T07:40:27.607Z,2.55
2018-01-13T07:42:55.250Z,2.51
2018-01-13T07:45:22.801Z,2.56
2018-01-13T07:47:50.342Z,2.56
2018-01-13T07:50:17.890Z,2.56
2018-01-13T07:52:45.486Z,2.59
2018-01-13T07:55:13.073Z,2.50
2018-01-13T07:57:40.666Z,2.46
2018-01-13T08:00:08.261Z,2.48
2018-01-13T08:02:35.813Z,2.50
2018-01-13T08:05:03.364Z,2.50
2018-01-13T08:07:31.099Z,2.52
2018-01-13T08:09:58.702Z,2.50
2018-01-13T08:12:26.246Z,2.59
2018-01-13T08:14:53.789Z,2.66
2018-01-13T08:17:21.382Z,2.64
2018-01-13T08:19:49.035Z,2.68
2018-01-13T08:22:17.566Z,2.69
2018-01-13T08:24:45.106Z,2.72
2018-01-13T08:27:12.650Z,2.65
2018-01-13T08:29:40.185Z,2.68
2018-01-13T08:32:07.779Z,2.73
2018-01-13T08:34:35.374Z,2.72
2018-01-13T08:37:02.910Z,2.66
2018-01-13T08:39:30.464Z,2.78
2018-01-13T08:41:58.002Z,2.70
2018-01-13T08:44:25.654Z,2.74
2018-01-13T08:46:53.247Z,2.74
2018-01-13T08:49:20.850Z,2.80
2018-01-13T08:51:48.458Z,2.82
2018-01-13T08:54:15.995Z,2.85
2018-01-13T08:56:43.647Z,2.85
2018-01-13T08:59:11.305Z,2.82
2018-01-13T09:01:55.538Z,2.92
2018-01-13T09:04:23.172Z,2.96
2018-01-13T09:06:50.706Z,2.87
2018-01-13T09:09:18.314Z,2.88
2018-01-13T09:11:45.911Z,2.88
2018-01-13T09:14:13.463Z,2.94
2018-01-13T09:16:41.112Z,2.84
2018-01-13T09:19:08.710Z,2.83
2018-01-13T09:21:36.250Z,2.82
2018-01-13T09:24:03.859Z,2.87
2018-01-13T09:26:31.454Z,2.85
2018-01-13T09:28:58.994Z,2.88
2018-01-13T09:31:26.578Z,2.93
2018-01-13T09:33:54.114Z,2.95
2018-01-13T09:36:21.710Z,3.00
2018-01-13T09:41:47.567Z,3.09
2018-01-13T09:44:15.234Z,3.05
2018-01-13T09:46:42.770Z,3.08
2018-01-13T09:49:10.367Z,3.07
2018-01-13T09:51:37.971Z,3.09
2018-01-13T09:54:05.583Z,3.16
2018-01-13T09:56:33.165Z,3.21
2018-01-13T09:59:00.709Z,3.22
2018-01-13T10:01:28.303Z,3.20
2018-01-13T10:03:55.850Z,3.25
2018-01-13T10:06:23.465Z,3.27
2018-01-13T10:08:51.046Z,3.25
2018-01-13T10:11:18.582Z,3.18
2018-01-13T10:13:46.122Z,3.22
2018-01-13T10:16:13.736Z,3.18
2018-01-13T10:18:41.338Z,3.06
2018-01-13T10:21:08.914Z,2.98
2018-01-13T10:23:36.446Z,2.92
2018-01-13T10:26:03.986Z,2.91
2018-01-13T10:28:31.526Z,2.96
2018-01-13T10:30:59.131Z,3.00
2018-01-13T10:33:26.717Z,2.85
2018-01-13T10:35:54.254Z,2.80
2018-01-13T10:38:21.814Z,2.72
2018-01-13T10:40:49.422Z,2.75
2018-01-13T10:43:16.962Z,2.74
2018-01-13T10:45:44.550Z,2.85
2018-01-13T10:48:12.147Z,2.84
2018-01-13T10:50:39.738Z,2.82
2018-01-13T10:53:07.281Z,2.71
2018-01-13T10:55:35.781Z,2.80
2018-01-13T10:58:03.368Z,2.76
2018-01-13T11:00:30.901Z,2.80
2018-01-13T11:02:58.500Z,2.90
2018-01-13T11:05:26.042Z,2.86
2018-01-13T11:07:53.611Z,2.81
2018-01-13T11:10:21.190Z,2.82
2018-01-13T11:12:48.790Z,2.80
2018-01-13T11:15:16.326Z,2.83
2018-01-13T11:17:43.930Z,2.88
2018-01-13T11:20:11.468Z,2.90
2018-01-13T11:22:39.118Z,2.87
2018-01-13T11:25:06.715Z,2.84
2018-01-13T11:27:34.246Z,2.77
2018-01-13T11:30:01.791Z,2.78
2018-01-13T11:32:29.398Z,2.74
2018-01-13T11:34:56.981Z,2.75
2018-01-13T11:37:24.574Z,2.83
2018-01-13T11:39:52.118Z,2.76
2018-01-13T11:42:19.666Z,2.82
2018-01-13T11:44:47.201Z,2.80
2018-01-13T11:47:14.815Z,2.84
2018-01-13T11:49:42.362Z,2.76
2018-01-13T11:52:09.959Z,2.78
2018-01-13T11:54:37.510Z,2.83
2018-01-13T11:57:05.042Z,2.86
2018-01-13T11:59:32.688Z,2.83
2018-01-13T12:02:00.229Z,2.86
2018-01-13T12:04:27.822Z,2.88
2018-01-13T12:06:55.370Z,2.96
2018-01-13T12:09:22.908Z,3.02
2018-01-13T12:11:50.491Z,3.09
2018-01-13T12:14:18.090Z,3.06
2018-01-13T12:16:45.697Z,3.10
2018-01-13T12:19:13.238Z,3.02
2018-01-13T12:21:40.774Z,3.02
2018-01-13T12:24:08.362Z,2.98
2018-01-13T12:26:35.899Z,3.03
2018-01-13T12:29:03.501Z,3.00
2018-01-13T12:31:31.114Z,3.05
2018-01-13T12:33:58.678Z,3.06
2018-01-13T12:36:26.330Z,3.09
2018-01-13T12:38:53.868Z,3.16
2018-01-13T12:41:21.405Z,3.14
2018-01-13T12:43:49.051Z,3.06
2018-01-13T12:46:16.603Z,3.03
2018-01-13T12:48:44.189Z,3.05
2018-01-13T12:51:11.802Z,3.06
2018-01-13T12:53:39.333Z,3.01
2018-01-13T12:56:06.918Z,2.98
2018-01-13T12:58:34.454Z,3.09
2018-01-13T13:01:02.102Z,3.06
2018-01-13T13:03:29.698Z,3.06
2018-01-13T13:05:57.242Z,3.08
2018-01-13T13:08:24.790Z,2.94
2018-01-13T13:10:52.326Z,2.93
2018-01-13T13:13:19.915Z,2.84
2018-01-13T13:15:47.478Z,2.73
2018-01-13T13:18:15.032Z,2.74
2018-01-13T13:20:42.584Z,2.73
2018-01-13T13:23:10.122Z,2.71
2018-01-13T13:25:37.775Z,2.79
2018-01-13T13:28:05.309Z,2.81
2018-01-13T13:30:32.858Z,2.75
2018-01-13T13:33:00.459Z,2.70
2018-01-13T13:35:27.995Z,2.75
2018-01-13T13:37:55.679Z,2.74
2018-01-13T13:40:23.218Z,2.74
2018-01-13T13:42:50.758Z,2.67
2018-01-13T13:45:18.306Z,2.69
2018-01-13T13:47:45.850Z,2.72
2018-01-13T13:50:13.504Z,2.80
2018-01-13T13:52:41.051Z,2.83
2018-01-13T13:55:08.584Z,2.86
2018-01-13T13:57:36.136Z,2.81
2018-01-13T14:00:03.734Z,2.65
2018-01-13T14:02:31.337Z,2.70
2018-01-13T14:04:58.874Z,2.63
2018-01-13T14:07:26.460Z,2.69
2018-01-13T14:09:53.981Z,2.67
2018-01-13T14:12:21.522Z,2.68
2018-01-13T14:14:49.110Z,2.65
2018-01-13T14:17:16.710Z,2.59
2018-01-13T14:19:44.302Z,2.53
2018-01-13T14:22:11.842Z,2.58
2018-01-13T14:24:39.437Z,2.50
2018-01-13T14:27:07.015Z,2.52
2018-01-13T14:29:34.558Z,2.63
2018-01-13T14:32:02.099Z,2.61
2018-01-13T14:34:29.642Z,2.56
2018-01-13T14:36:57.182Z,2.56
2018-01-13T14:39:24.762Z,2.65
2018-01-13T14:41:52.298Z,2.68
2018-01-13T14:44:19.829Z,2.62
2018-01-13T14:46:47.382Z,2.58
2018-01-13T14:49:14.914Z,2.65
2018-01-13T14:51:42.489Z,2.59
2018-01-13T14:54:10.022Z,2.60
2018-01-13T14:56:37.554Z,2.60
2018-01-13T14:59:05.093Z,2.63
2018-01-13T15:01:32.681Z,2.60
2018-01-13T15:04:00.314Z,2.56
2018-01-13T15:06:27.845Z,2.53
2018-01-13T15:08:55.385Z,2.50
2018-01-13T15:11:22.963Z,2.45
2018-01-13T15:13:50.499Z,2.50
2018-01-13T15:16:18.102Z,2.46
2018-01-13T15:18:45.645Z,2.49
2018-01-13T15:21:13.238Z,2.52
2018-01-13T15:23:40.777Z,2.51
2018-01-13T15:26:08.378Z,2.56
2018-01-13T15:28:35.954Z,2.58
2018-01-13T15:31:03.537Z,2.54
2018-01-13T15:33:31.082Z,2.54
2018-01-13T15:35:58.707Z,2.52
2018-01-13T15:38:26.405Z,2.55
2018-01-13T15:40:54.082Z,2.62
2018-01-13T15:43:21.682Z,2.59
2018-01-13T15:45:49.225Z,2.57
2018-01-13T15:48:16.830Z,2.58
2018-01-13T15:50:44.366Z,2.62
2018-01-13T15:53:12.007Z,2.68
2018-01-13T15:55:39.550Z,2.63
2018-01-13T15:58:07.143Z,2.64
2018-01-13T16:00:34.685Z,2.66
2018-01-13T16:03:02.226Z,2.64
2018-01-13T16:05:29.810Z,2.64
2018-01-13T16:07:57.351Z,2.65
2018-01-13T16:10:24.881Z,2.56
2018-01-13T16:12:52.428Z,2.58
2018-01-13T16:15:19.966Z,2.60
2018-01-13T16:17:47.542Z,2.61
2018-01-13T16:20:15.070Z,2.65
2018-01-13T16:22:42.667Z,2.63
2018-01-13T16:25:10.210Z,2.57
2018-01-13T16:27:37.808Z,2.57
2018-01-13T16:30:05.407Z,2.58
2018-01-13T16:32:33.004Z,2.62
2018-01-13T16:35:00.542Z,2.60
2018-01-13T16:37:28.098Z,2.53
2018-01-13T16:39:55.630Z,2.53
2018-01-13T16:42:23.206Z,2.43
2018-01-13T16:44:50.802Z,2.46
2018-01-13T16:47:18.339Z,2.44
2018-01-13T16:49:45.886Z,2.37
2018-01-13T16:52:13.478Z,2.33
2018-01-13T16:54:41.118Z,2.31
2018-01-13T16:57:08.650Z,2.30
2018-01-13T16:59:36.188Z,2.27
2018-01-13T17:02:03.734Z,2.21
2018-01-13T17:04:31.319Z,2.28
2018-01-13T17:06:58.959Z,2.27
2018-01-13T17:09:26.487Z,2.24
2018-01-13T17:11:54.070Z,2.26
2018-01-13T17:14:21.610Z,2.25
2018-01-13T17:16:49.210Z,2.21
2018-01-13T17:19:16.786Z,2.21
2018-01-13T17:21:44.318Z,2.25
2018-01-13T17:24:11.910Z,2.25
2018-01-13T17:26:39.541Z,2.26
2018-01-13T17:29:07.066Z,2.23
2018-01-13T17:31:34.647Z,2.22
2018-01-13T17:34:02.182Z,2.20
2018-01-13T17:36:29.709Z,2.15
2018-01-13T17:38:57.318Z,2.16
2018-01-13T17:41:24.854Z,2.07
2018-01-13T17:43:52.434Z,2.11
2018-01-13T17:46:19.969Z,2.06
2018-01-13T17:48:47.602Z,2.00
2018-01-13T17:51:15.137Z,2.00
2018-01-13T17:53:42.684Z,1.94
2018-01-13T17:56:10.339Z,1.93
2018-01-13T17:58:37.926Z,1.97
2018-01-13T18:01:05.521Z,1.96
2018-01-13T18:03:33.062Z,1.90
2018-01-13T18:06:00.590Z,1.96
2018-01-13T18:08:28.255Z,2.01
2018-01-13T18:10:55.787Z,2.02
2018-01-13T18:13:23.318Z,1.97
2018-01-13T18:15:50.922Z,1.93
2018-01-13T18:18:18.450Z,1.96
2018-01-13T18:20:46.030Z,1.96
2018-01-13T18:23:13.553Z,2.00
2018-01-13T18:25:41.083Z,1.88
2018-01-13T18:28:08.626Z,1.85
2018-01-13T18:30:36.180Z,1.95
2018-01-13T18:33:03.750Z,1.88
2018-01-13T18:35:31.286Z,1.93
2018-01-13T18:37:58.831Z,1.93
2018-01-13T18:40:26.438Z,1.85
2018-01-13T18:42:53.973Z,1.85
2018-01-13T18:45:21.610Z,1.87
2018-01-13T18:47:49.200Z,1.80
2018-01-13T18:50:16.735Z,1.76
2018-01-13T18:52:44.274Z,1.71
2018-01-13T18:55:11.811Z,1.72
2018-01-13T18:57:39.395Z,1.66
2018-01-13T19:00:06.935Z,1.68
2018-01-13T19:02:34.462Z,1.66
2018-01-13T19:05:02.006Z,1.60
2018-01-13T19:07:29.612Z,1.67
2018-01-13T19:09:57.243Z,1.75
2018-01-13T19:12:24.834Z,1.70
2018-01-13T19:14:52.443Z,1.71
2018-01-13T19:17:20.039Z,1.66
2018-01-13T19:19:47.634Z,1.70
2018-01-13T19:22:15.246Z,1.60
2018-01-13T19:24:42.838Z,1.52
2018-01-13T19:27:10.365Z,1.50
2018-01-13T19:29:37.966Z,1.47
2018-01-13T19:32:05.497Z,1.38
2018-01-13T19:34:33.091Z,1.30
2018-01-13T19:37:00.654Z,1.27
2018-01-13T19:39:28.183Z,1.19
2018-01-13T19:41:55.722Z,1.15
2018-01-13T19:44:23.310Z,1.18
2018-01-13T19:46:50.905Z,1.17
2018-01-13T19:49:18.499Z,1.22
2018-01-13T19:51:46.022Z,1.21
2018-01-13T19:54:13.558Z,1.23
2018-01-13T19:56:41.082Z,1.26
2018-01-13T19:59:08.656Z,1.18
2018-01-13T20:01:36.177Z,1.21
2018-01-13T20:04:03.766Z,1.16
2018-01-13T20:06:31.309Z,1.23
2018-01-13T20:08:58.900Z,1.22
2018-01-13T20:11:26.478Z,1.21
2018-01-13T20:13:54.078Z,1.19
2018-01-13T20:16:21.602Z,1.16
2018-01-13T20:18:49.142Z,1.15
2018-01-13T20:21:16.684Z,1.14
2018-01-13T20:23:44.294Z,1.07
2018-01-13T20:26:11.818Z,1.06
2018-01-13T20:28:39.407Z,1.08
2018-01-13T20:31:06.998Z,1.03
2018-01-13T20:33:34.582Z,1.02
2018-01-13T20:36:02.218Z,1.02
2018-01-13T20:38:29.746Z,0.98
2018-01-13T20:40:57.359Z,1.01
2018-01-13T20:43:24.955Z,1.01
2018-01-13T20:45:52.493Z,1.02
2018-01-13T20:48:20.062Z,0.93
2018-01-13T20:50:47.654Z,0.90
2018-01-13T20:53:15.238Z,0.89
2018-01-13T20:55:42.834Z,0.79
2018-01-13T20:58:10.426Z,0.81
2018-01-13T21:00:38.002Z,0.85
2018-01-13T21:03:05.591Z,0.85
2018-01-13T21:05:33.186Z,0.81
2018-01-13T21:08:00.783Z,0.85
2018-01-13T21:10:28.408Z,0.77
2018-01-13T21:12:56.007Z,0.66
2018-01-13T21:15:23.538Z,0.62
2018-01-13T21:17:51.106Z,0.65
2018-01-13T21:20:18.693Z,0.73
2018-01-13T21:22:46.217Z,0.62
2018-01-13T21:25:13.855Z,0.61
2018-01-13T21:27:41.381Z,0.56
2018-01-13T21:30:08.974Z,0.48
2018-01-13T21:32:36.510Z,0.49
2018-01-13T21:35:04.101Z,0.45
2018-01-13T21:37:31.673Z,0.51
2018-01-13T21:39:59.201Z,0.43
2018-01-13T21:42:26.738Z,0.36
2018-01-13T21:44:54.406Z,0.36
2018-01-13T21:47:21.942Z,0.30
2018-01-13T21:49:49.531Z,0.28
2018-01-13T21:52:17.126Z,0.19
2018-01-13T21:54:45.062Z,0.24
2018-01-13T21:57:12.609Z,0.23
2018-01-13T21:59:40.199Z,0.17
2018-01-13T22:02:07.784Z,0.17
2018-01-13T22:04:35.378Z,0.22
2018-01-13T22:07:03.402Z,0.26
2018-01-13T22:09:30.967Z,0.30
2018-01-13T22:11:58.510Z,0.29
2018-01-13T22:14:26.123Z,0.34
2018-01-13T22:16:53.742Z,0.34
2018-01-13T22:19:21.269Z,0.38
2018-01-13T22:21:48.802Z,0.38
2018-01-13T22:24:16.433Z,0.40
2018-01-13T22:26:44.111Z,0.40
2018-01-13T22:29:11.706Z,0.40
2018-01-13T22:31:39.241Z,0.35
2018-01-13T22:34:06.782Z,0.38
2018-01-13T22:36:34.379Z,0.35
2018-01-13T22:39:02.022Z,0.28
2018-01-13T22:41:29.550Z,0.24
2018-01-13T22:43:57.082Z,0.21
2018-01-13T22:46:24.622Z,0.20
2018-01-13T22:48:52.146Z,0.12
2018-01-13T22:51:19.718Z,0.10
2018-01-13T22:53:47.302Z,0.05
2018-01-13T22:56:14.826Z,0.10
2018-01-13T22:58:42.417Z,0.05
2018-01-13T23:01:10.018Z,0.06
2018-01-13T23:03:37.598Z,-0.01
2018-01-13T23:06:05.135Z,-0.07
2018-01-13T23:08:32.674Z,-0.01
2018-01-13T23:11:00.225Z,-0.04
2018-01-13T23:13:27.887Z,-0.15
2018-01-13T23:15:55.493Z,-0.17
2018-01-13T23:18:23.022Z,-0.11
2018-01-13T23:20:50.553Z,-0.20
2018-01-13T23:23:18.094Z,-0.17
2018-01-13T23:25:45.689Z,-0.16
2018-01-13T23:28:13.266Z,-0.12
2018-01-13T23:30:40.794Z,-0.12
2018-01-13T23:33:08.341Z,-0.09
2018-01-13T23:35:35.942Z,-0.04
2018-01-13T23:38:03.471Z,-0.03
2018-01-13T23:40:31.054Z,-0.07
2018-01-13T23:42:58.665Z,-0.08
2018-01-13T23:45:26.211Z,-0.03
2018-01-13T23:47:53.761Z,-0.01
2018-01-13T23:50:21.351Z,0.03
2018-01-13T23:52:48.934Z,0.05
2018-01-13T23:55:16.462Z,0.05
2018-01-13T23:57:43.998Z,-0.01
